WWA152 NZWN-NZRO
Flight info
| Callsign | WWA152 |
|---|---|
| Flight time | N/A |
| Altitude | 29000 |
| Route | KAPTI Y273 DAGOM Y715 ARETI Y539 INTOX |
| Aircraft | A319/M-SDE3FGHIRWY/LB1 |
Departure
| Time | 2026-05-01 15:28 |
|---|---|
| Airport | Wellington International Airport (NZWN) |
Arrival
| Time | N/A |
|---|---|
| Airport | Rotorua Regional Airport (NZRO) |
| Time | Latitude | Longitude | Altitude | Speed | Heading |
|---|---|---|---|---|---|
| 2026-05-01 15:14 | -41.32962 | 174.81024 | 25 ft | 0 kts | 152° |
| 2026-05-01 15:19 | -41.32952 | 174.81017 | 24 ft | 2 kts | 152° |
| 2026-05-01 15:19 | -41.32939 | 174.81007 | 24 ft | 2 kts | 153° |
| 2026-05-01 15:20 | -41.32918 | 174.80994 | 24 ft | 0 kts | 158° |
| 2026-05-01 15:20 | -41.32914 | 174.80992 | 24 ft | 0 kts | 217° |
| 2026-05-01 15:20 | -41.32911 | 174.80997 | 24 ft | 0 kts | 263° |
| 2026-05-01 15:21 | -41.32911 | 174.80960 | 24 ft | 4 kts | 272° |
| 2026-05-01 15:21 | -41.32910 | 174.80940 | 24 ft | 0 kts | 272° |
| 2026-05-01 15:24 | -41.32910 | 174.80939 | 24 ft | 0 kts | 272° |
| 2026-05-01 15:24 | -41.32910 | 174.80919 | 24 ft | 3 kts | 273° |
| 2026-05-01 15:25 | -41.32930 | 174.80882 | 24 ft | 7 kts | 193° |
| 2026-05-01 15:25 | -41.32970 | 174.80826 | 24 ft | 10 kts | 254° |
| 2026-05-01 15:25 | -41.33049 | 174.80792 | 24 ft | 13 kts | 180° |
| 2026-05-01 15:25 | -41.33167 | 174.80786 | 22 ft | 17 kts | 182° |
| 2026-05-01 15:26 | -41.33307 | 174.80778 | 22 ft | 19 kts | 182° |
| 2026-05-01 15:26 | -41.33464 | 174.80769 | 23 ft | 21 kts | 181° |
| 2026-05-01 15:26 | -41.33568 | 174.80667 | 24 ft | 14 kts | 281° |
| 2026-05-01 15:26 | -41.33486 | 174.80637 | 24 ft | 13 kts | 4° |
| 2026-05-01 15:27 | -41.33366 | 174.80649 | 24 ft | 24 kts | 4° |
| 2026-05-01 15:27 | -41.32904 | 174.80676 | 24 ft | 100 kts | 3° |
| 2026-05-01 15:27 | -41.31976 | 174.80749 | 124 ft | 149 kts | 5° |
| 2026-05-01 15:28 | -41.29827 | 174.80888 | 1706 ft | 145 kts | 358° |
| 2026-05-01 15:28 | -41.28721 | 174.80913 | 2384 ft | 155 kts | 359° |
| 2026-05-01 15:28 | -41.27502 | 174.80978 | 2961 ft | 172 kts | 360° |
| 2026-05-01 15:29 | -41.24752 | 174.80440 | 4252 ft | 203 kts | 338° |
| 2026-05-01 15:29 | -41.23306 | 174.79662 | 4917 ft | 220 kts | 339° |
| 2026-05-01 15:29 | -41.20083 | 174.78387 | 6268 ft | 250 kts | 346° |
| 2026-05-01 15:30 | -41.17165 | 174.77441 | 7440 ft | 270 kts | 345° |
| 2026-05-01 15:31 | -41.09164 | 174.79993 | 10954 ft | 299 kts | 27° |
| 2026-05-01 15:31 | -41.04776 | 174.82100 | 11919 ft | 334 kts | 18° |
| 2026-05-01 15:32 | -40.99784 | 174.84227 | 12654 ft | 371 kts | 17° |
| 2026-05-01 15:32 | -40.94405 | 174.86505 | 14008 ft | 384 kts | 17° |
| 2026-05-01 15:33 | -40.86132 | 174.89999 | 16089 ft | 397 kts | 17° |
| 2026-05-01 15:34 | -40.77621 | 174.93582 | 17997 ft | 408 kts | 18° |